Matheson, Colorado
Current Conditions -  °F | °C
As of 5:55 PM on Monday 22 Dec 2014 (Local Time) from KLIC Reporting Station
Overcast Overcast  
Wind Chill: 17°   Ceiling: 9000
Heat Index: 28°   Visibility: 10mi
Dew Point: 25°   Wind: 15mph
Humidity: 88%   Direction: 290°WNW
Pressure: 29.73"   Gusts: NA
Location:  39.17°N, 103.98°W
Report Text: KLIC 230055Z AUTO 29013KT 10SM SCT060 OVC090 M02/M04 A2973 RMK AO2 SLP083 T10221039
Loading
Personal Weather Stations






























Interactive Weather Map New forecast layout! Learn more

10-Day Weather Forecast

Advertisements
Track Severe Weather on mobile